Terminal Aerodrome Forecast
Issued by NWS Cleveland, OH

Home | Current Version | Previous Version | Graphics & Text | Print | Product List | Glossary Off
Versions: 1 2 3 4 5 6 7 8 9 10 11 12 13 14 15 16 17 18 19 20 21 22

000
FTUS41 KCLE 272100 AAB
TAFMFD
TAF AMD
KMFD 272125Z 2721/2818 21014G24KT P6SM OVC025
     FM280000 23012G22KT 4SM -SHRA BR SCT007 OVC010
     FM280300 23012KT 4SM -SHRA BR BKN007 OVC015
     FM280800 30010KT 5SM -SHRA BR SCT007 OVC012
     FM281300 28009KT 6SM BR VCSH OVC018
     FM281600 28010KT P6SM BKN020=

USA.gov is the U.S. government's official web portal to all federal, state and local government web resources and services.